sensor_id;sensor_type;location;lat;lon;timestamp;P1;durP1;ratioP1;P2;durP2;ratioP2
46551;SDS011;32278;51.810;4.712;2022-08-01T00:00:34;8.82;;;6.45;;
46551;SDS011;32278;51.810;4.712;2022-08-01T00:02:59;8.60;;;6.07;;
46551;SDS011;32278;51.810;4.712;2022-08-01T00:05:25;8.40;;;6.60;;
46551;SDS011;32278;51.810;4.712;2022-08-01T00:07:51;7.05;;;6.20;;
46551;SDS011;32278;51.810;4.712;2022-08-01T00:10:16;10.27;;;6.45;;
46551;SDS011;32278;51.810;4.712;2022-08-01T00:12:42;7.35;;;6.45;;
46551;SDS011;32278;51.810;4.712;2022-08-01T00:15:10;8.50;;;6.22;;
46551;SDS011;32278;51.810;4.712;2022-08-01T00:17:36;6.72;;;5.47;;
46551;SDS011;32278;51.810;4.712;2022-08-01T00:20:03;6.68;;;5.78;;
46551;SDS011;32278;51.810;4.712;2022-08-01T00:22:30;5.65;;;5.00;;
46551;SDS011;32278;51.810;4.712;2022-08-01T00:24:56;9.13;;;5.78;;
46551;SDS011;32278;51.810;4.712;2022-08-01T00:27:22;6.30;;;5.60;;
46551;SDS011;32278;51.810;4.712;2022-08-01T00:29:47;5.22;;;4.72;;
46551;SDS011;32278;51.810;4.712;2022-08-01T00:32:13;6.22;;;4.88;;
46551;SDS011;32278;51.810;4.712;2022-08-01T00:34:38;6.40;;;5.40;;
46551;SDS011;32278;51.810;4.712;2022-08-01T00:37:04;5.88;;;5.20;;
46551;SDS011;32278;51.810;4.712;2022-08-01T00:39:29;6.45;;;5.32;;
46551;SDS011;32278;51.810;4.712;2022-08-01T00:41:57;6.97;;;4.30;;
46551;SDS011;32278;51.810;4.712;2022-08-01T00:44:23;4.93;;;4.43;;
46551;SDS011;32278;51.810;4.712;2022-08-01T00:46:48;5.50;;;4.25;;
46551;SDS011;32278;51.810;4.712;2022-08-01T00:49:14;5.38;;;4.53;;
46551;SDS011;32278;51.810;4.712;2022-08-01T00:51:40;4.93;;;3.75;;
46551;SDS011;32278;51.810;4.712;2022-08-01T00:54:05;4.90;;;4.50;;
46551;SDS011;32278;51.810;4.712;2022-08-01T00:56:31;4.82;;;4.10;;
46551;SDS011;32278;51.810;4.712;2022-08-01T00:58:57;7.55;;;4.45;;
46551;SDS011;32278;51.810;4.712;2022-08-01T01:01:24;4.13;;;3.72;;
46551;SDS011;32278;51.810;4.712;2022-08-01T01:03:50;5.78;;;4.32;;
46551;SDS011;32278;51.810;4.712;2022-08-01T01:06:39;5.63;;;3.97;;
46551;SDS011;32278;51.810;4.712;2022-08-01T01:13:26;5.90;;;4.47;;
46551;SDS011;32278;51.810;4.712;2022-08-01T01:18:17;7.75;;;4.68;;
46551;SDS011;32278;51.810;4.712;2022-08-01T01:21:00;4.53;;;4.05;;
46551;SDS011;32278;51.810;4.712;2022-08-01T01:29:28;7.85;;;4.32;;
46551;SDS011;32278;51.810;4.712;2022-08-01T01:32:06;5.85;;;3.80;;
46551;SDS011;32278;51.810;4.712;2022-08-01T01:34:38;5.90;;;4.55;;
46551;SDS011;32278;51.810;4.712;2022-08-01T01:37:07;7.53;;;4.80;;
46551;SDS011;32278;51.810;4.712;2022-08-01T01:39:37;5.35;;;4.35;;
46551;SDS011;32278;51.810;4.712;2022-08-01T01:42:05;7.05;;;4.22;;
46551;SDS011;32278;51.810;4.712;2022-08-01T01:44:32;5.38;;;4.35;;
46551;SDS011;32278;51.810;4.712;2022-08-01T01:47:00;6.93;;;4.53;;
46551;SDS011;32278;51.810;4.712;2022-08-01T01:49:27;7.40;;;4.38;;
46551;SDS011;32278;51.810;4.712;2022-08-01T01:51:55;7.18;;;4.45;;
46551;SDS011;32278;51.810;4.712;2022-08-01T01:54:23;8.95;;;4.93;;
46551;SDS011;32278;51.810;4.712;2022-08-01T01:56:53;8.45;;;4.40;;
46551;SDS011;32278;51.810;4.712;2022-08-01T01:59:24;7.07;;;4.75;;
46551;SDS011;32278;51.810;4.712;2022-08-01T02:01:52;6.85;;;4.72;;
46551;SDS011;32278;51.810;4.712;2022-08-01T02:04:21;7.13;;;4.93;;
46551;SDS011;32278;51.810;4.712;2022-08-01T02:06:50;8.23;;;4.38;;
46551;SDS011;32278;51.810;4.712;2022-08-01T02:09:17;6.63;;;4.25;;
46551;SDS011;32278;51.810;4.712;2022-08-01T02:11:45;9.25;;;3.88;;
46551;SDS011;32278;51.810;4.712;2022-08-01T02:14:13;7.05;;;4.22;;
46551;SDS011;32278;51.810;4.712;2022-08-01T02:16:41;7.38;;;4.50;;
46551;SDS011;32278;51.810;4.712;2022-08-01T02:19:09;5.57;;;4.50;;
46551;SDS011;32278;51.810;4.712;2022-08-01T02:21:46;5.22;;;4.10;;
46551;SDS011;32278;51.810;4.712;2022-08-01T02:26:49;6.07;;;4.40;;
46551;SDS011;32278;51.810;4.712;2022-08-01T02:29:35;6.55;;;4.55;;
46551;SDS011;32278;51.810;4.712;2022-08-01T02:32:48;8.88;;;4.90;;
46551;SDS011;32278;51.810;4.712;2022-08-01T02:35:24;7.28;;;4.65;;
46551;SDS011;32278;51.810;4.712;2022-08-01T02:37:53;7.55;;;4.07;;
46551;SDS011;32278;51.810;4.712;2022-08-01T02:40:21;7.57;;;3.85;;
46551;SDS011;32278;51.810;4.712;2022-08-01T02:42:49;7.35;;;3.45;;
46551;SDS011;32278;51.810;4.712;2022-08-01T02:45:17;6.05;;;3.60;;
46551;SDS011;32278;51.810;4.712;2022-08-01T02:47:45;5.90;;;3.33;;
46551;SDS011;32278;51.810;4.712;2022-08-01T02:50:13;4.50;;;2.90;;
46551;SDS011;32278;51.810;4.712;2022-08-01T02:52:41;5.03;;;3.67;;
46551;SDS011;32278;51.810;4.712;2022-08-01T02:55:09;5.00;;;2.83;;
46551;SDS011;32278;51.810;4.712;2022-08-01T02:57:36;3.40;;;3.03;;
46551;SDS011;32278;51.810;4.712;2022-08-01T03:00:03;5.72;;;3.08;;
46551;SDS011;32278;51.810;4.712;2022-08-01T03:02:30;5.10;;;3.10;;
46551;SDS011;32278;51.810;4.712;2022-08-01T03:04:58;3.42;;;2.97;;
46551;SDS011;32278;51.810;4.712;2022-08-01T03:07:26;4.20;;;3.03;;
46551;SDS011;32278;51.810;4.712;2022-08-01T03:09:54;4.78;;;3.20;;
46551;SDS011;32278;51.810;4.712;2022-08-01T03:12:22;5.55;;;3.22;;
46551;SDS011;32278;51.810;4.712;2022-08-01T03:14:50;4.97;;;3.15;;
46551;SDS011;32278;51.810;4.712;2022-08-01T03:17:18;5.00;;;3.33;;
46551;SDS011;32278;51.810;4.712;2022-08-01T03:19:47;5.00;;;3.33;;
46551;SDS011;32278;51.810;4.712;2022-08-01T03:22:15;3.35;;;3.00;;
46551;SDS011;32278;51.810;4.712;2022-08-01T03:24:42;5.28;;;3.15;;
46551;SDS011;32278;51.810;4.712;2022-08-01T03:27:10;4.40;;;3.10;;
46551;SDS011;32278;51.810;4.712;2022-08-01T03:29:39;4.72;;;3.10;;
46551;SDS011;32278;51.810;4.712;2022-08-01T03:32:05;5.47;;;3.15;;
46551;SDS011;32278;51.810;4.712;2022-08-01T03:34:31;8.18;;;2.80;;
46551;SDS011;32278;51.810;4.712;2022-08-01T03:37:00;3.45;;;3.10;;
46551;SDS011;32278;51.810;4.712;2022-08-01T03:39:49;8.00;;;3.63;;
46551;SDS011;32278;51.810;4.712;2022-08-01T03:42:20;5.35;;;3.42;;
46551;SDS011;32278;51.810;4.712;2022-08-01T03:44:52;4.30;;;2.95;;
46551;SDS011;32278;51.810;4.712;2022-08-01T03:49:50;3.97;;;3.40;;
46551;SDS011;32278;51.810;4.712;2022-08-01T03:52:17;5.93;;;3.38;;
46551;SDS011;32278;51.810;4.712;2022-08-01T03:54:45;4.75;;;3.42;;
46551;SDS011;32278;51.810;4.712;2022-08-01T03:57:12;4.20;;;3.15;;
46551;SDS011;32278;51.810;4.712;2022-08-01T03:59:39;5.90;;;3.10;;
46551;SDS011;32278;51.810;4.712;2022-08-01T04:02:06;5.50;;;3.55;;
46551;SDS011;32278;51.810;4.712;2022-08-01T04:04:32;3.80;;;2.70;;
46551;SDS011;32278;51.810;4.712;2022-08-01T04:06:58;4.40;;;3.10;;
46551;SDS011;32278;51.810;4.712;2022-08-01T04:09:28;4.93;;;3.70;;
46551;SDS011;32278;51.810;4.712;2022-08-01T04:11:55;4.13;;;3.33;;
46551;SDS011;32278;51.810;4.712;2022-08-01T04:14:21;4.25;;;3.63;;
46551;SDS011;32278;51.810;4.712;2022-08-01T04:16:46;5.13;;;3.42;;
46551;SDS011;32278;51.810;4.712;2022-08-01T04:19:12;5.00;;;3.08;;
46551;SDS011;32278;51.810;4.712;2022-08-01T04:21:37;4.15;;;3.42;;
46551;SDS011;32278;51.810;4.712;2022-08-01T04:24:05;6.30;;;3.38;;
46551;SDS011;32278;51.810;4.712;2022-08-01T04:26:34;4.00;;;3.60;;
46551;SDS011;32278;51.810;4.712;2022-08-01T04:29:02;7.07;;;3.60;;
46551;SDS011;32278;51.810;4.712;2022-08-01T04:31:30;5.53;;;2.90;;
46551;SDS011;32278;51.810;4.712;2022-08-01T04:33:56;4.38;;;2.60;;
46551;SDS011;32278;51.810;4.712;2022-08-01T04:36:24;4.20;;;2.78;;
46551;SDS011;32278;51.810;4.712;2022-08-01T04:38:54;4.80;;;3.22;;
46551;SDS011;32278;51.810;4.712;2022-08-01T04:41:22;4.30;;;2.60;;
46551;SDS011;32278;51.810;4.712;2022-08-01T04:43:49;4.65;;;2.35;;
46551;SDS011;32278;51.810;4.712;2022-08-01T04:46:16;3.88;;;2.03;;
46551;SDS011;32278;51.810;4.712;2022-08-01T04:48:43;1.80;;;1.70;;
46551;SDS011;32278;51.810;4.712;2022-08-01T04:51:13;2.20;;;2.00;;
46551;SDS011;32278;51.810;4.712;2022-08-01T04:53:41;4.22;;;2.05;;
46551;SDS011;32278;51.810;4.712;2022-08-01T04:56:07;2.95;;;2.00;;
46551;SDS011;32278;51.810;4.712;2022-08-01T04:58:33;2.42;;;1.83;;
46551;SDS011;32278;51.810;4.712;2022-08-01T05:00:58;3.30;;;1.45;;
46551;SDS011;32278;51.810;4.712;2022-08-01T05:03:24;2.00;;;1.50;;
46551;SDS011;32278;51.810;4.712;2022-08-01T05:05:49;1.90;;;1.65;;
46551;SDS011;32278;51.810;4.712;2022-08-01T05:08:15;2.03;;;1.50;;
46551;SDS011;32278;51.810;4.712;2022-08-01T05:10:41;3.63;;;1.63;;
46551;SDS011;32278;51.810;4.712;2022-08-01T05:13:07;1.80;;;1.23;;
46551;SDS011;32278;51.810;4.712;2022-08-01T05:15:36;2.95;;;1.33;;
46551;SDS011;32278;51.810;4.712;2022-08-01T05:18:02;3.67;;;1.40;;
46551;SDS011;32278;51.810;4.712;2022-08-01T05:20:27;1.50;;;1.40;;
46551;SDS011;32278;51.810;4.712;2022-08-01T05:22:53;1.40;;;1.30;;
46551;SDS011;32278;51.810;4.712;2022-08-01T05:25:19;2.58;;;1.50;;
46551;SDS011;32278;51.810;4.712;2022-08-01T05:27:44;2.50;;;1.55;;
46551;SDS011;32278;51.810;4.712;2022-08-01T05:30:10;1.42;;;1.10;;
46551;SDS011;32278;51.810;4.712;2022-08-01T05:32:36;2.38;;;1.35;;
46551;SDS011;32278;51.810;4.712;2022-08-01T05:35:02;2.22;;;1.15;;
46551;SDS011;32278;51.810;4.712;2022-08-01T05:37:27;5.75;;;1.30;;
46551;SDS011;32278;51.810;4.712;2022-08-01T05:39:53;1.67;;;1.10;;
46551;SDS011;32278;51.810;4.712;2022-08-01T05:42:19;1.90;;;1.08;;
46551;SDS011;32278;51.810;4.712;2022-08-01T05:44:44;1.55;;;1.17;;
46551;SDS011;32278;51.810;4.712;2022-08-01T05:47:10;1.55;;;1.10;;
46551;SDS011;32278;51.810;4.712;2022-08-01T05:49:35;2.42;;;1.10;;
46551;SDS011;32278;51.810;4.712;2022-08-01T05:52:01;2.60;;;1.00;;
46551;SDS011;32278;51.810;4.712;2022-08-01T05:54:27;1.02;;;0.90;;
46551;SDS011;32278;51.810;4.712;2022-08-01T05:56:53;1.67;;;1.05;;
46551;SDS011;32278;51.810;4.712;2022-08-01T05:59:19;1.67;;;0.90;;
46551;SDS011;32278;51.810;4.712;2022-08-01T06:01:45;1.45;;;0.93;;
46551;SDS011;32278;51.810;4.712;2022-08-01T06:04:10;1.75;;;0.93;;
46551;SDS011;32278;51.810;4.712;2022-08-01T06:06:37;1.40;;;1.33;;
46551;SDS011;32278;51.810;4.712;2022-08-01T06:09:02;2.30;;;1.15;;
46551;SDS011;32278;51.810;4.712;2022-08-01T06:11:28;1.83;;;1.10;;
46551;SDS011;32278;51.810;4.712;2022-08-01T06:13:53;2.22;;;1.17;;
46551;SDS011;32278;51.810;4.712;2022-08-01T06:16:19;3.10;;;1.30;;
46551;SDS011;32278;51.810;4.712;2022-08-01T06:18:45;2.28;;;1.38;;
46551;SDS011;32278;51.810;4.712;2022-08-01T06:21:10;2.15;;;1.10;;
46551;SDS011;32278;51.810;4.712;2022-08-01T06:23:36;1.60;;;1.20;;
46551;SDS011;32278;51.810;4.712;2022-08-01T06:26:02;2.97;;;1.42;;
46551;SDS011;32278;51.810;4.712;2022-08-01T06:28:28;2.42;;;1.42;;
46551;SDS011;32278;51.810;4.712;2022-08-01T06:30:53;1.50;;;1.40;;
46551;SDS011;32278;51.810;4.712;2022-08-01T06:33:19;1.33;;;1.17;;
46551;SDS011;32278;51.810;4.712;2022-08-01T06:35:45;1.40;;;1.30;;
46551;SDS011;32278;51.810;4.712;2022-08-01T06:38:11;2.53;;;1.40;;
46551;SDS011;32278;51.810;4.712;2022-08-01T06:40:36;1.27;;;1.17;;
46551;SDS011;32278;51.810;4.712;2022-08-01T06:43:04;2.97;;;1.52;;
46551;SDS011;32278;51.810;4.712;2022-08-01T06:45:30;2.42;;;1.67;;
46551;SDS011;32278;51.810;4.712;2022-08-01T06:47:55;1.90;;;1.10;;
46551;SDS011;32278;51.810;4.712;2022-08-01T06:50:21;1.60;;;1.27;;
46551;SDS011;32278;51.810;4.712;2022-08-01T06:52:46;1.35;;;1.20;;
46551;SDS011;32278;51.810;4.712;2022-08-01T06:55:12;1.20;;;1.10;;
46551;SDS011;32278;51.810;4.712;2022-08-01T06:57:45;2.40;;;1.08;;
46551;SDS011;32278;51.810;4.712;2022-08-01T07:00:12;4.97;;;1.25;;
46551;SDS011;32278;51.810;4.712;2022-08-01T07:02:38;5.00;;;1.42;;
46551;SDS011;32278;51.810;4.712;2022-08-01T07:05:04;4.22;;;1.25;;
46551;SDS011;32278;51.810;4.712;2022-08-01T07:07:30;2.45;;;1.00;;
46551;SDS011;32278;51.810;4.712;2022-08-01T07:09:56;1.08;;;0.93;;
46551;SDS011;32278;51.810;4.712;2022-08-01T07:12:22;3.50;;;1.10;;
46551;SDS011;32278;51.810;4.712;2022-08-01T07:14:47;1.20;;;1.10;;
46551;SDS011;32278;51.810;4.712;2022-08-01T07:17:13;3.40;;;1.90;;
46551;SDS011;32278;51.810;4.712;2022-08-01T07:19:38;1.85;;;1.45;;
46551;SDS011;32278;51.810;4.712;2022-08-01T07:22:05;1.85;;;1.20;;
46551;SDS011;32278;51.810;4.712;2022-08-01T07:24:31;1.25;;;1.15;;
46551;SDS011;32278;51.810;4.712;2022-08-01T07:26:56;4.20;;;2.40;;
46551;SDS011;32278;51.810;4.712;2022-08-01T07:29:25;2.70;;;2.50;;
46551;SDS011;32278;51.810;4.712;2022-08-01T07:31:52;5.85;;;3.00;;
46551;SDS011;32278;51.810;4.712;2022-08-01T07:34:19;9.35;;;4.50;;
46551;SDS011;32278;51.810;4.712;2022-08-01T07:36:44;6.78;;;4.47;;
46551;SDS011;32278;51.810;4.712;2022-08-01T07:39:10;5.25;;;3.78;;
46551;SDS011;32278;51.810;4.712;2022-08-01T07:41:36;9.50;;;4.28;;
46551;SDS011;32278;51.810;4.712;2022-08-01T07:44:01;5.07;;;3.78;;
46551;SDS011;32278;51.810;4.712;2022-08-01T07:46:28;5.70;;;3.03;;
46551;SDS011;32278;51.810;4.712;2022-08-01T07:48:55;4.63;;;3.13;;
46551;SDS011;32278;51.810;4.712;2022-08-01T07:51:20;5.35;;;3.20;;
46551;SDS011;32278;51.810;4.712;2022-08-01T07:53:46;4.30;;;3.17;;
46551;SDS011;32278;51.810;4.712;2022-08-01T07:56:12;5.40;;;3.55;;
46551;SDS011;32278;51.810;4.712;2022-08-01T07:58:37;10.57;;;3.92;;
46551;SDS011;32278;51.810;4.712;2022-08-01T08:01:03;8.00;;;3.10;;
46551;SDS011;32278;51.810;4.712;2022-08-01T08:03:28;4.32;;;2.90;;
46551;SDS011;32278;51.810;4.712;2022-08-01T08:05:54;4.85;;;3.33;;
46551;SDS011;32278;51.810;4.712;2022-08-01T08:08:19;8.10;;;4.30;;
46551;SDS011;32278;51.810;4.712;2022-08-01T08:10:45;10.23;;;4.15;;
46551;SDS011;32278;51.810;4.712;2022-08-01T08:13:10;7.75;;;4.00;;
46551;SDS011;32278;51.810;4.712;2022-08-01T08:15:36;11.02;;;5.18;;
46551;SDS011;32278;51.810;4.712;2022-08-01T08:18:05;16.20;;;6.10;;
46551;SDS011;32278;51.810;4.712;2022-08-01T08:20:31;17.05;;;6.57;;
46551;SDS011;32278;51.810;4.712;2022-08-01T08:22:56;12.10;;;6.43;;
46551;SDS011;32278;51.810;4.712;2022-08-01T08:25:25;19.38;;;7.25;;
46551;SDS011;32278;51.810;4.712;2022-08-01T08:27:51;12.23;;;6.55;;
46551;SDS011;32278;51.810;4.712;2022-08-01T08:30:17;19.20;;;9.27;;
46551;SDS011;32278;51.810;4.712;2022-08-01T08:32:43;21.83;;;10.05;;
46551;SDS011;32278;51.810;4.712;2022-08-01T08:35:08;20.83;;;11.25;;
46551;SDS011;32278;51.810;4.712;2022-08-01T08:37:34;24.75;;;9.40;;
46551;SDS011;32278;51.810;4.712;2022-08-01T08:40:01;29.83;;;10.10;;
46551;SDS011;32278;51.810;4.712;2022-08-01T08:42:28;26.17;;;10.23;;
46551;SDS011;32278;51.810;4.712;2022-08-01T08:44:54;28.38;;;10.02;;
46551;SDS011;32278;51.810;4.712;2022-08-01T08:47:20;27.23;;;10.18;;
46551;SDS011;32278;51.810;4.712;2022-08-01T08:49:49;32.63;;;9.70;;
46551;SDS011;32278;51.810;4.712;2022-08-01T08:52:20;29.08;;;8.95;;
46551;SDS011;32278;51.810;4.712;2022-08-01T08:54:47;29.90;;;10.15;;
46551;SDS011;32278;51.810;4.712;2022-08-01T08:57:14;28.80;;;9.63;;
46551;SDS011;32278;51.810;4.712;2022-08-01T08:59:41;27.10;;;9.40;;
46551;SDS011;32278;51.810;4.712;2022-08-01T09:02:08;30.45;;;9.73;;
46551;SDS011;32278;51.810;4.712;2022-08-01T09:04:35;25.88;;;8.38;;
46551;SDS011;32278;51.810;4.712;2022-08-01T09:07:03;33.70;;;9.77;;
46551;SDS011;32278;51.810;4.712;2022-08-01T09:09:30;28.20;;;8.40;;
46551;SDS011;32278;51.810;4.712;2022-08-01T09:11:55;27.67;;;7.93;;
46551;SDS011;32278;51.810;4.712;2022-08-01T09:14:21;28.08;;;7.97;;
46551;SDS011;32278;51.810;4.712;2022-08-01T09:17:02;25.58;;;7.80;;
46551;SDS011;32278;51.810;4.712;2022-08-01T09:19:38;25.23;;;8.77;;
46551;SDS011;32278;51.810;4.712;2022-08-01T09:22:06;28.77;;;8.15;;
46551;SDS011;32278;51.810;4.712;2022-08-01T09:24:34;17.60;;;6.40;;
46551;SDS011;32278;51.810;4.712;2022-08-01T09:27:01;23.27;;;6.60;;
46551;SDS011;32278;51.810;4.712;2022-08-01T09:29:40;17.90;;;5.88;;
46551;SDS011;32278;51.810;4.712;2022-08-01T09:32:06;17.23;;;6.55;;
46551;SDS011;32278;51.810;4.712;2022-08-01T09:34:32;15.77;;;5.20;;
46551;SDS011;32278;51.810;4.712;2022-08-01T09:36:58;17.27;;;4.85;;
46551;SDS011;32278;51.810;4.712;2022-08-01T09:39:44;15.82;;;4.47;;
46551;SDS011;32278;51.810;4.712;2022-08-01T09:42:26;12.77;;;4.00;;
46551;SDS011;32278;51.810;4.712;2022-08-01T09:47:19;15.45;;;3.95;;
46551;SDS011;32278;51.810;4.712;2022-08-01T09:49:55;15.70;;;3.50;;
46551;SDS011;32278;51.810;4.712;2022-08-01T09:52:22;12.57;;;3.28;;
46551;SDS011;32278;51.810;4.712;2022-08-01T09:54:53;13.77;;;3.67;;
46551;SDS011;32278;51.810;4.712;2022-08-01T09:57:23;15.20;;;3.20;;
46551;SDS011;32278;51.810;4.712;2022-08-01T09:59:50;16.13;;;4.07;;
46551;SDS011;32278;51.810;4.712;2022-08-01T10:02:37;13.52;;;4.30;;
46551;SDS011;32278;51.810;4.712;2022-08-01T10:05:05;10.95;;;3.58;;
46551;SDS011;32278;51.810;4.712;2022-08-01T10:07:33;9.13;;;3.08;;
46551;SDS011;32278;51.810;4.712;2022-08-01T10:10:12;12.82;;;3.28;;
46551;SDS011;32278;51.810;4.712;2022-08-01T10:12:39;13.60;;;3.45;;
46551;SDS011;32278;51.810;4.712;2022-08-01T10:15:06;10.00;;;3.53;;
46551;SDS011;32278;51.810;4.712;2022-08-01T10:17:33;10.52;;;3.15;;
46551;SDS011;32278;51.810;4.712;2022-08-01T10:20:03;16.38;;;3.25;;
46551;SDS011;32278;51.810;4.712;2022-08-01T10:22:30;14.05;;;3.63;;
46551;SDS011;32278;51.810;4.712;2022-08-01T10:24:56;12.20;;;2.97;;
46551;SDS011;32278;51.810;4.712;2022-08-01T10:27:26;13.20;;;2.83;;
46551;SDS011;32278;51.810;4.712;2022-08-01T10:29:58;12.07;;;2.85;;
46551;SDS011;32278;51.810;4.712;2022-08-01T10:32:29;9.10;;;3.97;;
46551;SDS011;32278;51.810;4.712;2022-08-01T10:34:55;9.68;;;2.70;;
46551;SDS011;32278;51.810;4.712;2022-08-01T10:37:22;10.52;;;2.58;;
46551;SDS011;32278;51.810;4.712;2022-08-01T10:39:48;8.82;;;2.50;;
46551;SDS011;32278;51.810;4.712;2022-08-01T10:42:16;9.57;;;2.67;;
46551;SDS011;32278;51.810;4.712;2022-08-01T10:44:43;8.63;;;2.50;;
46551;SDS011;32278;51.810;4.712;2022-08-01T10:47:13;9.77;;;2.55;;
46551;SDS011;32278;51.810;4.712;2022-08-01T10:49:56;7.10;;;2.55;;
46551;SDS011;32278;51.810;4.712;2022-08-01T10:52:29;11.52;;;3.00;;
46551;SDS011;32278;51.810;4.712;2022-08-01T10:55:02;10.52;;;2.30;;
46551;SDS011;32278;51.810;4.712;2022-08-01T10:57:47;4.93;;;1.88;;
46551;SDS011;32278;51.810;4.712;2022-08-01T11:00:22;8.18;;;3.03;;
46551;SDS011;32278;51.810;4.712;2022-08-01T11:02:58;9.77;;;2.33;;
46551;SDS011;32278;51.810;4.712;2022-08-01T11:05:26;11.70;;;2.45;;
46551;SDS011;32278;51.810;4.712;2022-08-01T11:07:53;9.93;;;2.30;;
46551;SDS011;32278;51.810;4.712;2022-08-01T11:10:29;12.13;;;2.53;;
46551;SDS011;32278;51.810;4.712;2022-08-01T11:13:02;9.80;;;2.78;;
46551;SDS011;32278;51.810;4.712;2022-08-01T11:15:30;6.65;;;2.20;;
46551;SDS011;32278;51.810;4.712;2022-08-01T11:17:56;11.40;;;2.72;;
46551;SDS011;32278;51.810;4.712;2022-08-01T11:20:24;9.13;;;2.60;;
46551;SDS011;32278;51.810;4.712;2022-08-01T11:30:49;9.30;;;2.30;;
46551;SDS011;32278;51.810;4.712;2022-08-01T11:33:17;12.55;;;2.45;;
46551;SDS011;32278;51.810;4.712;2022-08-01T11:38:34;6.18;;;1.77;;
46551;SDS011;32278;51.810;4.712;2022-08-01T11:41:10;6.22;;;2.25;;
46551;SDS011;32278;51.810;4.712;2022-08-01T11:43:54;7.78;;;2.22;;
46551;SDS011;32278;51.810;4.712;2022-08-01T11:49:34;4.53;;;1.90;;
46551;SDS011;32278;51.810;4.712;2022-08-01T11:52:10;10.07;;;2.95;;
46551;SDS011;32278;51.810;4.712;2022-08-01T11:54:52;11.43;;;2.40;;
46551;SDS011;32278;51.810;4.712;2022-08-01T11:57:20;7.93;;;2.95;;
46551;SDS011;32278;51.810;4.712;2022-08-01T11:59:58;10.52;;;2.85;;
46551;SDS011;32278;51.810;4.712;2022-08-01T12:02:29;8.52;;;2.35;;
46551;SDS011;32278;51.810;4.712;2022-08-01T12:04:57;7.35;;;2.40;;
46551;SDS011;32278;51.810;4.712;2022-08-01T12:07:24;6.05;;;1.83;;
46551;SDS011;32278;51.810;4.712;2022-08-01T12:09:58;6.78;;;2.22;;
46551;SDS011;32278;51.810;4.712;2022-08-01T12:12:26;8.20;;;2.38;;
46551;SDS011;32278;51.810;4.712;2022-08-01T12:14:56;19.90;;;3.90;;
46551;SDS011;32278;51.810;4.712;2022-08-01T12:20:03;8.88;;;2.42;;
46551;SDS011;32278;51.810;4.712;2022-08-01T12:22:30;9.73;;;2.83;;
46551;SDS011;32278;51.810;4.712;2022-08-01T12:24:56;6.57;;;2.45;;
46551;SDS011;32278;51.810;4.712;2022-08-01T12:27:33;11.02;;;2.33;;
46551;SDS011;32278;51.810;4.712;2022-08-01T12:30:00;8.70;;;2.92;;
46551;SDS011;32278;51.810;4.712;2022-08-01T12:32:27;11.15;;;2.67;;
46551;SDS011;32278;51.810;4.712;2022-08-01T12:35:18;9.02;;;3.05;;
46551;SDS011;32278;51.810;4.712;2022-08-01T12:37:48;11.23;;;2.50;;
46551;SDS011;32278;51.810;4.712;2022-08-01T12:40:16;10.38;;;2.45;;
46551;SDS011;32278;51.810;4.712;2022-08-01T12:42:47;8.75;;;2.42;;
46551;SDS011;32278;51.810;4.712;2022-08-01T12:45:19;7.65;;;2.10;;
46551;SDS011;32278;51.810;4.712;2022-08-01T12:48:09;10.80;;;2.80;;
46551;SDS011;32278;51.810;4.712;2022-08-01T12:50:40;7.35;;;2.78;;
46551;SDS011;32278;51.810;4.712;2022-08-01T12:53:08;8.35;;;2.65;;
46551;SDS011;32278;51.810;4.712;2022-08-01T12:55:43;7.63;;;2.10;;
46551;SDS011;32278;51.810;4.712;2022-08-01T12:58:11;8.60;;;2.20;;
46551;SDS011;32278;51.810;4.712;2022-08-01T13:00:38;8.02;;;2.50;;
46551;SDS011;32278;51.810;4.712;2022-08-01T13:03:08;7.68;;;2.53;;
46551;SDS011;32278;51.810;4.712;2022-08-01T13:05:47;9.77;;;3.17;;
46551;SDS011;32278;51.810;4.712;2022-08-01T13:08:18;6.45;;;1.83;;
46551;SDS011;32278;51.810;4.712;2022-08-01T13:10:45;7.47;;;2.08;;
46551;SDS011;32278;51.810;4.712;2022-08-01T13:13:12;7.10;;;2.08;;
46551;SDS011;32278;51.810;4.712;2022-08-01T13:15:39;7.07;;;2.20;;
46551;SDS011;32278;51.810;4.712;2022-08-01T13:21:16;8.95;;;2.78;;
46551;SDS011;32278;51.810;4.712;2022-08-01T13:26:52;10.30;;;2.20;;
46551;SDS011;32278;51.810;4.712;2022-08-01T13:29:32;5.90;;;1.70;;
46551;SDS011;32278;51.810;4.712;2022-08-01T13:31:59;10.35;;;2.05;;
46551;SDS011;32278;51.810;4.712;2022-08-01T13:34:36;7.75;;;2.22;;
46551;SDS011;32278;51.810;4.712;2022-08-01T13:37:02;10.55;;;2.10;;
46551;SDS011;32278;51.810;4.712;2022-08-01T13:39:31;10.93;;;2.25;;
46551;SDS011;32278;51.810;4.712;2022-08-01T13:42:06;6.05;;;2.22;;
46551;SDS011;32278;51.810;4.712;2022-08-01T13:44:32;9.60;;;2.13;;
46551;SDS011;32278;51.810;4.712;2022-08-01T13:46:58;6.47;;;1.92;;
46551;SDS011;32278;51.810;4.712;2022-08-01T13:49:23;8.38;;;2.42;;
46551;SDS011;32278;51.810;4.712;2022-08-01T13:51:49;4.40;;;2.00;;
46551;SDS011;32278;51.810;4.712;2022-08-01T13:54:15;17.70;;;3.50;;
46551;SDS011;32278;51.810;4.712;2022-08-01T13:56:41;5.70;;;1.75;;
46551;SDS011;32278;51.810;4.712;2022-08-01T13:59:08;7.13;;;1.63;;
46551;SDS011;32278;51.810;4.712;2022-08-01T14:01:34;5.38;;;1.85;;
46551;SDS011;32278;51.810;4.712;2022-08-01T14:04:00;5.60;;;1.90;;
46551;SDS011;32278;51.810;4.712;2022-08-01T14:06:26;8.85;;;2.40;;
46551;SDS011;32278;51.810;4.712;2022-08-01T14:08:52;5.18;;;1.50;;
46551;SDS011;32278;51.810;4.712;2022-08-01T14:11:17;8.73;;;1.88;;
46551;SDS011;32278;51.810;4.712;2022-08-01T14:13:43;6.65;;;2.00;;
46551;SDS011;32278;51.810;4.712;2022-08-01T14:16:09;5.20;;;1.75;;
46551;SDS011;32278;51.810;4.712;2022-08-01T14:18:35;7.63;;;2.22;;
46551;SDS011;32278;51.810;4.712;2022-08-01T14:21:00;6.15;;;2.13;;
46551;SDS011;32278;51.810;4.712;2022-08-01T14:23:26;5.28;;;1.85;;
46551;SDS011;32278;51.810;4.712;2022-08-01T14:25:52;7.68;;;2.25;;
46551;SDS011;32278;51.810;4.712;2022-08-01T14:28:17;8.43;;;2.10;;
46551;SDS011;32278;51.810;4.712;2022-08-01T14:30:43;7.82;;;2.30;;
46551;SDS011;32278;51.810;4.712;2022-08-01T14:33:09;5.95;;;1.95;;
46551;SDS011;32278;51.810;4.712;2022-08-01T14:35:35;7.63;;;2.47;;
46551;SDS011;32278;51.810;4.712;2022-08-01T14:38:01;4.60;;;1.95;;
46551;SDS011;32278;51.810;4.712;2022-08-01T14:40:27;4.97;;;1.85;;
46551;SDS011;32278;51.810;4.712;2022-08-01T14:42:53;6.50;;;1.50;;
46551;SDS011;32278;51.810;4.712;2022-08-01T14:45:19;5.82;;;1.75;;
46551;SDS011;32278;51.810;4.712;2022-08-01T14:47:44;6.95;;;2.10;;
46551;SDS011;32278;51.810;4.712;2022-08-01T14:50:11;5.75;;;1.85;;
46551;SDS011;32278;51.810;4.712;2022-08-01T14:52:38;9.02;;;1.95;;
46551;SDS011;32278;51.810;4.712;2022-08-01T14:55:05;7.13;;;1.75;;
46551;SDS011;32278;51.810;4.712;2022-08-01T14:57:32;5.75;;;1.90;;
46551;SDS011;32278;51.810;4.712;2022-08-01T14:59:58;5.35;;;1.90;;
46551;SDS011;32278;51.810;4.712;2022-08-01T15:02:24;9.73;;;1.98;;
46551;SDS011;32278;51.810;4.712;2022-08-01T15:04:50;7.65;;;2.10;;
46551;SDS011;32278;51.810;4.712;2022-08-01T15:07:16;7.80;;;2.85;;
46551;SDS011;32278;51.810;4.712;2022-08-01T15:09:42;2.80;;;1.20;;
46551;SDS011;32278;51.810;4.712;2022-08-01T15:12:09;3.08;;;1.20;;
46551;SDS011;32278;51.810;4.712;2022-08-01T15:14:35;8.07;;;1.75;;
46551;SDS011;32278;51.810;4.712;2022-08-01T15:17:16;9.40;;;1.52;;
46551;SDS011;32278;51.810;4.712;2022-08-01T15:19:44;4.10;;;1.85;;
46551;SDS011;32278;51.810;4.712;2022-08-01T15:22:11;10.68;;;1.73;;
46551;SDS011;32278;51.810;4.712;2022-08-01T15:24:37;7.53;;;2.00;;
46551;SDS011;32278;51.810;4.712;2022-08-01T15:27:03;5.90;;;1.95;;
46551;SDS011;32278;51.810;4.712;2022-08-01T15:29:29;5.05;;;2.05;;
46551;SDS011;32278;51.810;4.712;2022-08-01T15:31:55;7.70;;;1.92;;
46551;SDS011;32278;51.810;4.712;2022-08-01T15:34:20;7.03;;;1.58;;